createdAt,value
2018-01-25T00:00:52.679Z,952.93
2018-01-25T00:01:52.666Z,953
2018-01-25T00:02:52.654Z,952.99
2018-01-25T00:03:52.641Z,952.99
2018-01-25T00:04:52.626Z,952.95
2018-01-25T00:05:52.614Z,952.86
2018-01-25T00:06:52.600Z,953.01
2018-01-25T00:07:52.588Z,952.95
2018-01-25T00:08:52.574Z,952.98
2018-01-25T00:09:52.560Z,953.02
2018-01-25T00:10:52.547Z,952.97
2018-01-25T00:11:52.534Z,953.03
2018-01-25T00:12:52.521Z,953.05
2018-01-25T00:13:52.508Z,953.08
2018-01-25T00:14:52.494Z,953.05
2018-01-25T00:15:52.481Z,953.04
2018-01-25T00:16:52.468Z,953.02
2018-01-25T00:17:52.455Z,953.03
2018-01-25T00:18:52.441Z,952.99
2018-01-25T00:19:52.430Z,953.03
2018-01-25T00:20:52.434Z,953.02
2018-01-25T00:21:52.402Z,953.05
2018-01-25T00:22:52.400Z,953.04
2018-01-25T00:23:52.376Z,953.09
2018-01-25T00:24:52.363Z,953.05
2018-01-25T00:25:52.349Z,953.08
2018-01-25T00:26:52.336Z,953.13
2018-01-25T00:27:52.323Z,953.07
2018-01-25T00:28:52.310Z,953.02
2018-01-25T00:29:52.296Z,952.98
2018-01-25T00:30:52.285Z,952.95
2018-01-25T00:31:52.273Z,952.97
2018-01-25T00:32:52.257Z,952.85
2018-01-25T00:33:52.245Z,952.95
2018-01-25T00:34:52.232Z,952.98
2018-01-25T00:35:52.219Z,952.97
2018-01-25T00:36:52.205Z,952.95
2018-01-25T00:37:52.192Z,952.99
2018-01-25T00:38:52.180Z,953.04
2018-01-25T00:39:52.168Z,953.04
2018-01-25T00:40:52.152Z,953
2018-01-25T00:41:52.139Z,953.06
2018-01-25T00:42:52.127Z,953.01
2018-01-25T00:43:52.113Z,952.94
2018-01-25T00:44:52.101Z,952.9
2018-01-25T00:45:52.110Z,952.91
2018-01-25T00:46:52.076Z,952.93
2018-01-25T00:47:52.061Z,952.92
2018-01-25T00:48:52.052Z,952.97
2018-01-25T00:49:52.038Z,952.91
2018-01-25T00:50:52.024Z,952.98
2018-01-25T00:51:52.008Z,952.91
2018-01-25T00:52:52.013Z,952.95
2018-01-25T00:53:51.983Z,952.91
2018-01-25T00:54:51.969Z,952.89
2018-01-25T00:55:51.956Z,952.85
2018-01-25T00:56:51.944Z,952.79
2018-01-25T00:57:51.931Z,952.99
2018-01-25T00:58:51.932Z,952.86
2018-01-25T00:59:51.904Z,952.83
2018-01-25T01:00:51.891Z,952.83
2018-01-25T01:01:51.876Z,952.94
2018-01-25T01:02:51.867Z,952.86
2018-01-25T01:03:51.851Z,952.84
2018-01-25T01:04:51.840Z,952.9
2018-01-25T01:05:51.826Z,952.93
2018-01-25T01:06:51.812Z,952.96
2018-01-25T01:07:51.798Z,952.98
2018-01-25T01:08:51.786Z,952.97
2018-01-25T01:09:51.772Z,953.05
2018-01-25T01:10:51.757Z,952.98
2018-01-25T01:11:51.746Z,952.98
2018-01-25T01:12:51.731Z,953.01
2018-01-25T01:13:51.717Z,952.98
2018-01-25T01:14:51.706Z,953
2018-01-25T01:15:51.693Z,953.01
2018-01-25T01:16:51.684Z,952.93
2018-01-25T01:17:51.666Z,952.9
2018-01-25T01:18:51.653Z,952.94
2018-01-25T01:19:51.641Z,952.9
2018-01-25T01:20:51.625Z,952.93
2018-01-25T01:21:51.615Z,952.96
2018-01-25T01:22:51.603Z,952.96
2018-01-25T01:23:51.586Z,952.99
2018-01-25T01:24:51.588Z,953.04
2018-01-25T01:25:51.561Z,952.99
2018-01-25T01:26:51.550Z,953.05
2018-01-25T01:27:51.533Z,953.05
2018-01-25T01:28:51.543Z,953.11
2018-01-25T01:29:51.507Z,952.99
2018-01-25T01:30:51.515Z,953.1
2018-01-25T01:31:51.484Z,953.09
2018-01-25T01:32:51.471Z,953.1
2018-01-25T01:33:51.455Z,953.1
2018-01-25T01:34:51.441Z,953.12
2018-01-25T01:35:51.427Z,953.12
2018-01-25T01:36:51.415Z,953.18
2018-01-25T01:37:51.403Z,953.16
2018-01-25T01:38:51.387Z,953.08
2018-01-25T01:39:51.375Z,953.1
2018-01-25T01:40:51.362Z,953.18
2018-01-25T01:41:51.348Z,953.13
2018-01-25T01:42:51.337Z,953.13
2018-01-25T01:43:51.322Z,953.18
2018-01-25T01:44:51.309Z,953.19
2018-01-25T01:45:51.296Z,953.21
2018-01-25T01:46:51.282Z,953.19
2018-01-25T01:47:51.272Z,953.17
2018-01-25T01:48:51.259Z,953.15
2018-01-25T01:49:51.247Z,953.16
2018-01-25T01:50:51.228Z,953.18
2018-01-25T01:51:51.216Z,953.09
2018-01-25T01:52:51.202Z,953.18
2018-01-25T01:53:51.187Z,953.17
2018-01-25T01:54:51.193Z,953.13
2018-01-25T01:55:51.162Z,953.07
2018-01-25T01:56:51.147Z,953.03
2018-01-25T01:57:51.136Z,953.04
2018-01-25T01:58:51.122Z,953.05
2018-01-25T01:59:51.123Z,953.06
2018-01-25T02:00:51.094Z,953.17
2018-01-25T02:01:51.096Z,953.2
2018-01-25T02:02:51.070Z,953.09
2018-01-25T02:03:51.056Z,953.02
2018-01-25T02:04:51.043Z,953.02
2018-01-25T02:05:51.029Z,953
2018-01-25T02:06:51.017Z,953.01
2018-01-25T02:07:51.002Z,952.97
2018-01-25T02:08:50.989Z,952.94
2018-01-25T02:09:50.978Z,953
2018-01-25T02:10:50.963Z,952.98
2018-01-25T02:11:50.951Z,953
2018-01-25T02:12:50.936Z,952.96
2018-01-25T02:13:50.923Z,952.94
2018-01-25T02:14:50.909Z,952.97
2018-01-25T02:15:50.896Z,952.99
2018-01-25T02:16:50.883Z,953
2018-01-25T02:17:50.870Z,953.01
2018-01-25T02:18:50.855Z,952.92
2018-01-25T02:19:50.843Z,953.03
2018-01-25T02:20:50.829Z,953
2018-01-25T02:21:50.817Z,952.99
2018-01-25T02:22:50.803Z,952.96
2018-01-25T02:23:50.791Z,952.93
2018-01-25T02:24:50.776Z,952.94
2018-01-25T02:25:50.762Z,952.95
2018-01-25T02:26:50.750Z,952.94
2018-01-25T02:27:50.737Z,952.95
2018-01-25T02:28:50.746Z,952.94
2018-01-25T02:29:50.709Z,952.95
2018-01-25T02:30:50.697Z,952.87
2018-01-25T02:31:50.688Z,952.84
2018-01-25T02:32:50.671Z,952.83
2018-01-25T02:33:50.657Z,952.84
2018-01-25T02:34:50.643Z,952.81
2018-01-25T02:35:50.631Z,952.8
2018-01-25T02:36:50.618Z,952.84
2018-01-25T02:37:50.604Z,952.83
2018-01-25T02:38:50.608Z,952.82
2018-01-25T02:39:50.578Z,952.82
2018-01-25T02:40:50.564Z,952.84
2018-01-25T02:41:50.562Z,952.81
2018-01-25T02:42:50.537Z,952.78
2018-01-25T02:43:50.524Z,952.82
2018-01-25T02:44:50.511Z,952.85
2018-01-25T02:45:50.497Z,952.76
2018-01-25T02:46:50.484Z,952.77
2018-01-25T02:47:50.478Z,952.84
2018-01-25T02:48:50.459Z,952.82
2018-01-25T02:49:50.501Z,952.8
2018-01-25T02:50:50.528Z,952.83
2018-01-25T02:51:50.474Z,952.84
2018-01-25T02:52:50.460Z,952.84
2018-01-25T02:53:50.410Z,952.89
2018-01-25T02:54:50.426Z,952.91
2018-01-25T02:55:50.428Z,952.92
2018-01-25T02:56:50.370Z,952.87
2018-01-25T02:57:50.388Z,952.92
2018-01-25T02:58:50.399Z,952.96
2018-01-25T02:59:50.361Z,952.97
2018-01-25T03:00:50.345Z,952.98
2018-01-25T03:01:50.319Z,953.02
2018-01-25T03:02:50.349Z,952.95
2018-01-25T03:03:50.261Z,953
2018-01-25T03:04:50.246Z,953
2018-01-25T03:05:50.232Z,953.05
2018-01-25T03:06:50.218Z,953.03
2018-01-25T03:07:50.205Z,953.04
2018-01-25T03:08:50.192Z,953.03
2018-01-25T03:09:50.192Z,953.01
2018-01-25T03:10:50.168Z,953.01
2018-01-25T03:11:50.152Z,953.03
2018-01-25T03:12:50.137Z,953
2018-01-25T03:13:50.125Z,953.02
2018-01-25T03:14:50.111Z,953.04
2018-01-25T03:15:50.100Z,952.98
2018-01-25T03:16:50.085Z,952.97
2018-01-25T03:17:50.071Z,953.01
2018-01-25T03:18:50.060Z,953
2018-01-25T03:19:50.046Z,953.03
2018-01-25T03:20:50.039Z,953.1
2018-01-25T03:21:50.034Z,953.06
2018-01-25T03:22:50.004Z,953.06
2018-01-25T03:23:49.991Z,953.09
2018-01-25T03:24:49.994Z,953.07
2018-01-25T03:25:49.963Z,953.1
2018-01-25T03:26:49.950Z,953.16
2018-01-25T03:27:49.936Z,953.1
2018-01-25T03:28:49.923Z,953.15
2018-01-25T03:29:49.910Z,953.16
2018-01-25T03:30:49.898Z,953.14
2018-01-25T03:31:49.883Z,953.15
2018-01-25T03:32:49.870Z,953.18
2018-01-25T03:33:49.857Z,953.2
2018-01-25T03:34:49.853Z,953.18
2018-01-25T03:35:49.829Z,953.25
2018-01-25T03:36:49.817Z,953.19
2018-01-25T03:37:49.803Z,953.13
2018-01-25T03:38:49.789Z,953.17
2018-01-25T03:39:49.776Z,953.19
2018-01-25T03:40:49.763Z,953.27
2018-01-25T03:41:49.750Z,953.26
2018-01-25T03:42:49.734Z,953.24
2018-01-25T03:43:49.721Z,953.32
2018-01-25T03:44:49.708Z,953.23
2018-01-25T03:45:49.695Z,953.31
2018-01-25T03:46:49.682Z,953.28
2018-01-25T03:47:49.669Z,953.2
2018-01-25T03:48:49.654Z,953.25
2018-01-25T03:49:49.640Z,953.27
2018-01-25T03:50:49.627Z,953.3
2018-01-25T03:51:49.620Z,953.27
2018-01-25T03:52:49.600Z,953.3
2018-01-25T03:53:49.586Z,953.28
2018-01-25T03:54:49.573Z,953.39
2018-01-25T03:55:49.559Z,953.38
2018-01-25T03:56:49.545Z,953.34
2018-01-25T03:57:49.532Z,953.34
2018-01-25T03:58:49.523Z,953.43
2018-01-25T03:59:49.522Z,953.4
2018-01-25T04:00:49.490Z,953.42
2018-01-25T04:01:49.480Z,953.41
2018-01-25T04:02:49.464Z,953.35
2018-01-25T04:03:49.451Z,953.38
2018-01-25T04:04:49.438Z,953.44
2018-01-25T04:05:49.423Z,953.41
2018-01-25T04:06:49.409Z,953.46
2018-01-25T04:07:49.409Z,953.42
2018-01-25T04:08:49.382Z,953.35
2018-01-25T04:09:49.369Z,953.37
2018-01-25T04:10:49.356Z,953.36
2018-01-25T04:11:49.341Z,953.33
2018-01-25T04:12:49.327Z,953.32
2018-01-25T04:13:49.315Z,953.29
2018-01-25T04:14:49.301Z,953.29
2018-01-25T04:15:49.286Z,953.28
2018-01-25T04:16:49.272Z,953.28
2018-01-25T04:17:49.260Z,953.25
2018-01-25T04:18:49.247Z,953.24
2018-01-25T04:19:49.232Z,953.33
2018-01-25T04:20:49.218Z,953.31
2018-01-25T04:21:49.205Z,953.31
2018-01-25T04:22:49.191Z,953.34
2018-01-25T04:23:49.178Z,953.29
2018-01-25T04:24:49.166Z,953.31
2018-01-25T04:25:49.151Z,953.27
2018-01-25T04:26:49.136Z,953.27
2018-01-25T04:27:49.123Z,953.29
2018-01-25T04:28:49.110Z,953.23
2018-01-25T04:29:49.097Z,953.31
2018-01-25T04:30:49.082Z,953.27
2018-01-25T04:31:49.069Z,953.3
2018-01-25T04:32:49.056Z,953.29
2018-01-25T04:33:49.041Z,953.38
2018-01-25T04:34:49.048Z,953.29
2018-01-25T04:35:49.016Z,953.33
2018-01-25T04:36:49.008Z,953.32
2018-01-25T04:37:48.987Z,953.37
2018-01-25T04:38:48.973Z,953.2
2018-01-25T04:39:48.982Z,953.3
2018-01-25T04:40:48.947Z,953.31
2018-01-25T04:41:48.932Z,953.29
2018-01-25T04:42:48.919Z,953.25
2018-01-25T04:43:48.906Z,953.24
2018-01-25T04:44:48.899Z,953.27
2018-01-25T04:45:48.878Z,953.33
2018-01-25T04:46:48.865Z,953.3
2018-01-25T04:47:48.851Z,953.26
2018-01-25T04:48:48.838Z,953.35
2018-01-25T04:49:48.824Z,953.34
2018-01-25T04:50:48.811Z,953.33
2018-01-25T04:51:48.797Z,953.31
2018-01-25T04:52:48.783Z,953.36
2018-01-25T04:53:48.769Z,953.34
2018-01-25T04:54:48.758Z,953.33
2018-01-25T04:55:48.742Z,953.32
2018-01-25T04:56:48.729Z,953.33
2018-01-25T04:57:48.717Z,953.38
2018-01-25T04:58:48.721Z,953.34
2018-01-25T04:59:48.693Z,953.35
2018-01-25T05:00:48.695Z,953.32
2018-01-25T05:01:48.664Z,953.45
2018-01-25T05:02:48.668Z,953.41
2018-01-25T05:03:48.640Z,953.38
2018-01-25T05:04:48.621Z,953.36
2018-01-25T05:05:48.608Z,953.41
2018-01-25T05:06:48.595Z,953.37
2018-01-25T05:07:48.581Z,953.46
2018-01-25T05:08:48.567Z,953.34
2018-01-25T05:09:48.613Z,953.38
2018-01-25T05:10:48.546Z,953.4
2018-01-25T05:11:48.528Z,953.38
2018-01-25T05:12:48.552Z,953.39
2018-01-25T05:13:48.501Z,953.37
2018-01-25T05:14:48.489Z,953.34
2018-01-25T05:15:48.476Z,953.4
2018-01-25T05:16:48.462Z,953.35
2018-01-25T05:17:48.449Z,953.36
2018-01-25T05:18:48.436Z,953.38
2018-01-25T05:19:48.422Z,953.37
2018-01-25T05:20:48.427Z,953.4
2018-01-25T05:21:48.400Z,953.35
2018-01-25T05:22:48.382Z,953.33
2018-01-25T05:23:48.375Z,953.31
2018-01-25T05:24:48.357Z,953.36
2018-01-25T05:25:48.342Z,953.31
2018-01-25T05:26:48.330Z,953.28
2018-01-25T05:27:48.317Z,953.38
2018-01-25T05:28:48.302Z,953.33
2018-01-25T05:29:48.295Z,953.33
2018-01-25T05:30:48.276Z,953.4
2018-01-25T05:31:48.265Z,953.38
2018-01-25T05:32:48.271Z,953.34
2018-01-25T05:33:48.236Z,953.42
2018-01-25T05:34:48.223Z,953.44
2018-01-25T05:35:48.210Z,953.4
2018-01-25T05:36:48.197Z,953.47
2018-01-25T05:37:48.185Z,953.43
2018-01-25T05:38:48.172Z,953.47
2018-01-25T05:39:48.156Z,953.45
2018-01-25T05:40:48.148Z,953.41
2018-01-25T05:41:48.131Z,953.47
2018-01-25T05:42:48.123Z,953.51
2018-01-25T05:43:48.104Z,953.54
2018-01-25T05:44:48.091Z,953.48
2018-01-25T05:45:48.077Z,953.6
2018-01-25T05:46:48.065Z,953.49
2018-01-25T05:47:48.052Z,953.49
2018-01-25T05:48:48.060Z,953.45
2018-01-25T05:49:48.026Z,953.48
2018-01-25T05:50:48.017Z,953.5
2018-01-25T05:51:47.999Z,953.46
2018-01-25T05:52:47.985Z,953.44
2018-01-25T05:53:47.973Z,953.46
2018-01-25T05:54:47.984Z,953.47
2018-01-25T05:55:47.946Z,953.51
2018-01-25T05:56:47.933Z,953.46
2018-01-25T05:57:47.920Z,953.44
2018-01-25T05:58:47.907Z,953.49
2018-01-25T05:59:47.894Z,953.42
2018-01-25T06:00:47.881Z,953.49
2018-01-25T06:01:47.867Z,953.46
2018-01-25T06:02:47.854Z,953.45
2018-01-25T06:03:47.841Z,953.48
2018-01-25T06:04:47.830Z,953.43
2018-01-25T06:05:47.815Z,953.44
2018-01-25T06:06:47.802Z,953.43
2018-01-25T06:07:47.789Z,953.51
2018-01-25T06:08:47.776Z,953.46
2018-01-25T06:09:47.851Z,953.43
2018-01-25T06:10:47.814Z,953.38
2018-01-25T06:11:47.737Z,953.55
2018-01-25T06:12:47.724Z,953.53
2018-01-25T06:13:47.711Z,953.5
2018-01-25T06:14:47.759Z,953.49
2018-01-25T06:15:47.780Z,953.42
2018-01-25T06:16:47.672Z,953.47
2018-01-25T06:17:47.659Z,953.47
2018-01-25T06:18:47.701Z,953.43
2018-01-25T06:19:47.633Z,953.42
2018-01-25T06:20:47.628Z,953.54
2018-01-25T06:21:47.606Z,953.53
2018-01-25T06:22:47.595Z,953.59
2018-01-25T06:23:47.599Z,953.5
2018-01-25T06:24:47.567Z,953.59
2018-01-25T06:25:47.555Z,953.55
2018-01-25T06:26:47.542Z,953.59
2018-01-25T06:27:47.529Z,953.6
2018-01-25T06:28:47.517Z,953.59
2018-01-25T06:29:47.504Z,953.6
2018-01-25T06:30:47.490Z,953.6
2018-01-25T06:31:47.476Z,953.66
2018-01-25T06:32:47.464Z,953.56
2018-01-25T06:33:47.455Z,953.61
2018-01-25T06:34:47.438Z,953.58
2018-01-25T06:35:47.427Z,953.65
2018-01-25T06:36:47.416Z,953.61
2018-01-25T06:37:47.400Z,953.58
2018-01-25T06:38:47.386Z,953.57
2018-01-25T06:39:47.376Z,953.54
2018-01-25T06:40:47.361Z,953.61
2018-01-25T06:41:47.348Z,953.62
2018-01-25T06:42:47.334Z,953.6
2018-01-25T06:43:47.322Z,953.56
2018-01-25T06:44:47.309Z,953.53
2018-01-25T06:45:47.295Z,953.57
2018-01-25T06:46:47.283Z,953.58
2018-01-25T06:47:47.271Z,953.57
2018-01-25T06:48:47.258Z,953.54
2018-01-25T06:49:47.245Z,953.56
2018-01-25T06:50:47.232Z,953.58
2018-01-25T06:51:47.223Z,953.49
2018-01-25T06:52:47.219Z,953.61
2018-01-25T06:53:47.193Z,953.55
2018-01-25T06:54:47.180Z,953.53
2018-01-25T06:55:47.169Z,953.52
2018-01-25T06:56:47.193Z,953.49
2018-01-25T06:57:47.142Z,953.49
2018-01-25T06:58:47.128Z,953.36
2018-01-25T06:59:47.116Z,953.46
2018-01-25T07:00:47.112Z,953.4
2018-01-25T07:01:47.090Z,953.42
2018-01-25T07:02:47.078Z,953.4
2018-01-25T07:03:47.064Z,953.43
2018-01-25T07:04:47.052Z,953.41
2018-01-25T07:05:47.064Z,953.42
2018-01-25T07:06:47.026Z,953.48
2018-01-25T07:07:47.013Z,953.41
2018-01-25T07:08:47.009Z,953.41
2018-01-25T07:09:46.988Z,953.38
2018-01-25T07:10:46.997Z,953.41
2018-01-25T07:11:46.962Z,953.41
2018-01-25T07:12:46.948Z,953.36
2018-01-25T07:13:46.936Z,953.42
2018-01-25T07:14:46.923Z,953.5
2018-01-25T07:15:46.910Z,953.51
2018-01-25T07:16:46.898Z,953.43
2018-01-25T07:17:46.897Z,953.49
2018-01-25T07:18:46.874Z,953.47
2018-01-25T07:19:46.860Z,953.52
2018-01-25T07:20:46.849Z,953.49
2018-01-25T07:21:46.834Z,953.54
2018-01-25T07:22:46.822Z,953.58
2018-01-25T07:23:46.809Z,953.57
2018-01-25T07:24:46.798Z,953.56
2018-01-25T07:25:46.782Z,953.6
2018-01-25T07:26:46.770Z,953.53
2018-01-25T07:27:46.758Z,953.5
2018-01-25T07:28:46.745Z,953.5
2018-01-25T07:29:46.732Z,953.51
2018-01-25T07:30:46.732Z,953.51
2018-01-25T07:31:46.710Z,953.5
2018-01-25T07:32:46.695Z,953.51
2018-01-25T07:33:46.681Z,953.48
2018-01-25T07:34:46.668Z,953.49
2018-01-25T07:35:46.656Z,953.52
2018-01-25T07:36:46.641Z,953.46
2018-01-25T07:37:46.635Z,953.48
2018-01-25T07:38:46.618Z,953.53
2018-01-25T07:39:46.605Z,953.49
2018-01-25T07:40:46.592Z,953.53
2018-01-25T07:41:46.590Z,953.56
2018-01-25T07:42:46.570Z,953.58
2018-01-25T07:43:46.553Z,953.56
2018-01-25T07:44:46.559Z,953.61
2018-01-25T07:45:46.530Z,953.6
2018-01-25T07:46:46.523Z,953.54
2018-01-25T07:47:46.502Z,953.57
2018-01-25T07:48:46.512Z,953.59
2018-01-25T07:49:46.480Z,953.56
2018-01-25T07:50:46.466Z,953.62
2018-01-25T07:51:46.453Z,953.61
2018-01-25T07:52:46.441Z,953.62
2018-01-25T07:53:46.427Z,953.59
2018-01-25T07:54:46.419Z,953.65
2018-01-25T07:55:46.402Z,953.67
2018-01-25T07:56:46.404Z,953.68
2018-01-25T07:57:46.378Z,953.65
2018-01-25T07:58:46.377Z,953.7
2018-01-25T07:59:46.351Z,953.65
2018-01-25T08:00:46.339Z,953.6
2018-01-25T08:01:46.326Z,953.63
2018-01-25T08:02:46.314Z,953.63
2018-01-25T08:03:46.300Z,953.61
2018-01-25T08:04:46.288Z,953.62
2018-01-25T08:05:46.277Z,953.64
2018-01-25T08:06:46.279Z,953.63
2018-01-25T08:07:46.249Z,953.7
2018-01-25T08:08:46.251Z,953.64
2018-01-25T08:09:46.224Z,953.64
2018-01-25T08:10:46.212Z,953.66
2018-01-25T08:11:46.207Z,953.66
2018-01-25T08:12:46.186Z,953.65
2018-01-25T08:13:46.185Z,953.61
2018-01-25T08:14:46.160Z,953.65
2018-01-25T08:15:46.147Z,953.65
2018-01-25T08:16:46.135Z,953.62
2018-01-25T08:17:46.141Z,953.65
2018-01-25T08:18:46.109Z,953.63
2018-01-25T08:19:46.099Z,953.62
2018-01-25T08:20:46.084Z,953.6
2018-01-25T08:21:46.071Z,953.56
2018-01-25T08:22:46.068Z,953.54
2018-01-25T08:23:46.047Z,953.54
2018-01-25T08:24:46.035Z,953.59
2018-01-25T08:25:46.044Z,953.58
2018-01-25T08:26:46.011Z,953.65
2018-01-25T08:27:46.008Z,953.54
2018-01-25T08:28:46.003Z,953.47
2018-01-25T08:29:45.972Z,953.46
2018-01-25T08:30:45.960Z,953.55
2018-01-25T08:31:45.947Z,953.62
2018-01-25T08:32:45.935Z,953.61
2018-01-25T08:33:45.923Z,953.66
2018-01-25T08:34:45.910Z,953.61
2018-01-25T08:35:45.917Z,953.6
2018-01-25T08:36:45.922Z,953.6
2018-01-25T08:37:45.873Z,953.5
2018-01-25T08:38:45.860Z,953.54
2018-01-25T08:39:45.848Z,953.5
2018-01-25T08:40:45.836Z,953.57
2018-01-25T08:41:45.825Z,953.58
2018-01-25T08:42:45.811Z,953.62
2018-01-25T08:43:45.803Z,953.59
2018-01-25T08:44:45.787Z,953.62
2018-01-25T08:45:45.774Z,953.61
2018-01-25T08:46:45.761Z,953.6
2018-01-25T08:47:45.749Z,953.62
2018-01-25T08:48:45.752Z,953.64
2018-01-25T08:49:45.726Z,953.63
2018-01-25T08:50:45.713Z,953.63
2018-01-25T08:51:45.701Z,953.64
2018-01-25T08:52:45.689Z,953.6
2018-01-25T08:53:45.675Z,953.6
2018-01-25T08:54:45.664Z,953.6
2018-01-25T08:55:45.652Z,953.6
2018-01-25T08:56:45.639Z,953.59
2018-01-25T08:57:45.628Z,953.58
2018-01-25T08:58:45.630Z,953.62
2018-01-25T08:59:45.605Z,953.67
2018-01-25T09:00:45.591Z,953.59
2018-01-25T09:01:45.579Z,953.55
2018-01-25T09:02:45.568Z,953.52
2018-01-25T09:03:45.556Z,953.54
2018-01-25T09:04:45.545Z,953.56
2018-01-25T09:05:45.531Z,953.59
2018-01-25T09:06:45.517Z,953.59
2018-01-25T09:07:45.541Z,953.64
2018-01-25T09:08:45.495Z,953.59
2018-01-25T09:09:45.482Z,953.59
2018-01-25T09:10:45.471Z,953.56
2018-01-25T09:11:45.457Z,953.6
2018-01-25T09:12:45.445Z,953.67
2018-01-25T09:13:45.434Z,953.64
2018-01-25T09:14:45.439Z,953.63
2018-01-25T09:15:45.411Z,953.61
2018-01-25T09:16:45.398Z,953.69
2018-01-25T09:17:45.385Z,953.69
2018-01-25T09:18:45.420Z,953.69
2018-01-25T09:19:45.361Z,953.71
2018-01-25T09:20:45.349Z,953.69
2018-01-25T09:21:45.337Z,953.65
2018-01-25T09:22:45.343Z,953.61
2018-01-25T09:23:45.314Z,953.64
2018-01-25T09:24:45.303Z,953.61
2018-01-25T09:25:45.291Z,953.62
2018-01-25T09:26:45.276Z,953.64
2018-01-25T09:27:45.265Z,953.6
2018-01-25T09:28:45.253Z,953.66
2018-01-25T09:29:45.240Z,953.7
2018-01-25T09:30:45.230Z,953.71
2018-01-25T09:31:45.216Z,953.69
2018-01-25T09:32:45.225Z,953.65
2018-01-25T09:33:45.192Z,953.65
2018-01-25T09:34:45.210Z,953.61
2018-01-25T09:35:45.168Z,953.64
2018-01-25T09:36:45.156Z,953.57
2018-01-25T09:37:45.144Z,953.63
2018-01-25T09:38:45.132Z,953.59
2018-01-25T09:39:45.120Z,953.65
2018-01-25T09:40:45.107Z,953.62
2018-01-25T09:41:45.100Z,953.59
2018-01-25T09:42:45.084Z,953.62
2018-01-25T09:43:45.072Z,953.67
2018-01-25T09:44:45.061Z,953.68
2018-01-25T09:45:45.049Z,953.65
2018-01-25T09:46:45.036Z,953.67
2018-01-25T09:47:45.024Z,953.67
2018-01-25T09:48:45.012Z,953.66
2018-01-25T09:49:45.042Z,953.71
2018-01-25T09:50:44.988Z,953.69
2018-01-25T09:51:44.975Z,953.64
2018-01-25T09:52:44.977Z,953.6
2018-01-25T09:53:44.951Z,953.69
2018-01-25T09:54:44.940Z,953.68
2018-01-25T09:55:44.928Z,953.69
2018-01-25T09:56:44.916Z,953.66
2018-01-25T09:57:44.905Z,953.67
2018-01-25T09:58:44.902Z,953.6
2018-01-25T09:59:44.883Z,953.55
2018-01-25T10:00:44.869Z,953.61
2018-01-25T10:01:44.857Z,953.6
2018-01-25T10:02:44.845Z,953.64
2018-01-25T10:03:44.833Z,953.6
2018-01-25T10:04:44.822Z,953.57
2018-01-25T10:05:44.810Z,953.57
2018-01-25T10:06:44.797Z,953.56
2018-01-25T10:07:44.786Z,953.57
2018-01-25T10:08:44.773Z,953.6
2018-01-25T10:09:44.762Z,953.53
2018-01-25T10:10:44.749Z,953.54
2018-01-25T10:11:44.738Z,953.59
2018-01-25T10:12:44.728Z,953.61
2018-01-25T10:13:44.714Z,953.62
2018-01-25T10:14:44.703Z,953.6
2018-01-25T10:15:44.691Z,953.59
2018-01-25T10:16:44.681Z,953.63
2018-01-25T10:17:44.669Z,953.59
2018-01-25T10:18:44.656Z,953.62
2018-01-25T10:19:44.646Z,953.59
2018-01-25T10:20:44.634Z,953.64
2018-01-25T10:21:44.621Z,953.57
2018-01-25T10:22:44.609Z,953.57
2018-01-25T10:23:44.598Z,953.52
2018-01-25T10:24:44.584Z,953.52
2018-01-25T10:25:44.575Z,953.5
2018-01-25T10:26:44.563Z,953.52
2018-01-25T10:27:44.576Z,953.54
2018-01-25T10:28:44.540Z,953.49
2018-01-25T10:29:44.529Z,953.51
2018-01-25T10:30:44.517Z,953.5
2018-01-25T10:31:44.505Z,953.49
2018-01-25T10:32:44.532Z,953.48
2018-01-25T10:33:44.483Z,953.45
2018-01-25T10:34:44.480Z,953.47
2018-01-25T10:35:44.478Z,953.49
2018-01-25T10:36:44.449Z,953.43
2018-01-25T10:37:44.436Z,953.46
2018-01-25T10:38:44.426Z,953.38
2018-01-25T10:39:44.416Z,953.42
2018-01-25T10:40:44.403Z,953.45
2018-01-25T10:41:44.396Z,953.41
2018-01-25T10:42:44.380Z,953.41
2018-01-25T10:43:44.368Z,953.38
2018-01-25T10:44:44.357Z,953.35
2018-01-25T10:45:44.345Z,953.34
2018-01-25T10:46:44.339Z,953.29
2018-01-25T10:47:44.323Z,953.28
2018-01-25T10:48:44.324Z,953.27
2018-01-25T10:49:44.300Z,953.2
2018-01-25T10:50:44.289Z,953.23
2018-01-25T10:51:44.278Z,953.22
2018-01-25T10:52:44.285Z,953.13
2018-01-25T10:53:44.255Z,953.14
2018-01-25T10:54:44.244Z,953.14
2018-01-25T10:55:44.232Z,953.12
2018-01-25T10:56:44.222Z,953.1
2018-01-25T10:57:44.210Z,953.06
2018-01-25T10:58:44.198Z,953.08
2018-01-25T10:59:44.188Z,953.14
2018-01-25T11:00:44.179Z,953.18
2018-01-25T11:01:44.169Z,953.12
2018-01-25T11:02:44.156Z,953.11
2018-01-25T11:03:44.149Z,953.09
2018-01-25T11:04:44.155Z,953.02
2018-01-25T11:05:44.136Z,953.04
2018-01-25T11:06:44.114Z,953.06
2018-01-25T11:07:44.100Z,953.09
2018-01-25T11:08:44.104Z,953.09
2018-01-25T11:09:44.079Z,953.07
2018-01-25T11:10:44.089Z,953.05
2018-01-25T11:11:44.057Z,952.95
2018-01-25T11:12:44.046Z,953.03
2018-01-25T11:13:44.036Z,952.99
2018-01-25T11:14:44.025Z,953.09
2018-01-25T11:15:44.014Z,953
2018-01-25T11:16:44.006Z,952.98
2018-01-25T11:17:43.993Z,952.93
2018-01-25T11:18:43.984Z,952.99
2018-01-25T11:19:43.971Z,952.93
2018-01-25T11:20:43.961Z,952.93
2018-01-25T11:21:43.958Z,952.94
2018-01-25T11:22:43.956Z,952.92
2018-01-25T11:23:43.949Z,952.91
2018-01-25T11:24:43.919Z,952.93
2018-01-25T11:25:43.912Z,952.95
2018-01-25T11:26:43.897Z,952.93
2018-01-25T11:27:43.887Z,952.89
2018-01-25T11:28:43.876Z,952.87
2018-01-25T11:29:43.887Z,952.9
2018-01-25T11:30:43.854Z,952.9
2018-01-25T11:31:43.846Z,952.84
2018-01-25T11:32:43.856Z,952.86
2018-01-25T11:33:43.825Z,952.83
2018-01-25T11:34:43.815Z,952.84
2018-01-25T11:35:43.804Z,952.82
2018-01-25T11:36:43.793Z,952.87
2018-01-25T11:37:43.784Z,952.82
2018-01-25T11:38:43.773Z,952.82
2018-01-25T11:39:43.764Z,952.82
2018-01-25T11:40:43.752Z,952.82
2018-01-25T11:41:43.741Z,952.75
2018-01-25T11:42:43.732Z,952.79
2018-01-25T11:43:43.720Z,952.74
2018-01-25T11:44:43.710Z,952.71
2018-01-25T11:45:43.702Z,952.71
2018-01-25T11:46:43.692Z,952.75
2018-01-25T11:47:43.681Z,952.71
2018-01-25T11:48:43.705Z,952.72
2018-01-25T11:49:43.660Z,952.72
2018-01-25T11:50:43.683Z,952.73
2018-01-25T11:51:43.645Z,952.72
2018-01-25T11:52:43.630Z,952.7
2018-01-25T11:53:43.623Z,952.7
2018-01-25T11:54:43.631Z,952.74
2018-01-25T11:55:43.598Z,952.68
2018-01-25T11:56:43.589Z,952.68
2018-01-25T11:57:43.580Z,952.62
2018-01-25T11:58:43.572Z,952.7
2018-01-25T11:59:43.560Z,952.71
2018-01-25T12:00:43.550Z,952.72
2018-01-25T12:01:43.541Z,952.71
2018-01-25T12:02:43.532Z,952.67
2018-01-25T12:03:43.520Z,952.63
2018-01-25T12:04:43.522Z,952.68
2018-01-25T12:05:43.501Z,952.7
2018-01-25T12:06:43.492Z,952.67
2018-01-25T12:07:43.483Z,952.67
2018-01-25T12:08:43.472Z,952.62
2018-01-25T12:09:43.462Z,952.66
2018-01-25T12:10:43.452Z,952.64
2018-01-25T12:11:43.443Z,952.62
2018-01-25T12:12:43.434Z,952.54
2018-01-25T12:13:43.424Z,952.58
2018-01-25T12:14:43.431Z,952.61
2018-01-25T12:15:43.405Z,952.69
2018-01-25T12:16:43.395Z,952.61
2018-01-25T12:17:43.397Z,952.65
2018-01-25T12:18:43.376Z,952.54
2018-01-25T12:19:43.365Z,952.57
2018-01-25T12:20:43.356Z,952.57
2018-01-25T12:21:43.345Z,952.51
2018-01-25T12:22:43.336Z,952.5
2018-01-25T12:23:43.348Z,952.52
2018-01-25T12:24:43.317Z,952.51
2018-01-25T12:25:43.306Z,952.47
2018-01-25T12:26:43.296Z,952.52
2018-01-25T12:27:43.288Z,952.41
2018-01-25T12:28:43.277Z,952.45
2018-01-25T12:29:43.267Z,952.38
2018-01-25T12:30:43.258Z,952.43
2018-01-25T12:31:43.249Z,952.42
2018-01-25T12:32:43.239Z,952.42